Time;durP1;ratioP1;P1;durP2;ratioP2;P2;SDS_P1;SDS_P2;PMS_P1;PMS_P2;Temp;Humidity;BMP_temperature;BMP_pressure;BME280_temperature;BME280_humidity;BME280_pressure;Samples;Min_cycle;Max_cycle;Signal;HPM_P1;HPM_P2
2023/05/12 00:00:40;;;;;;;10.27;8.67;;;9.40;99.90;;;;;;4983150;28;20030;-80
2023/05/12 00:03:06;;;;;;;11.47;8.50;;;9.40;99.90;;;;;;4982741;28;20039;-80
2023/05/12 00:05:32;;;;;;;10.30;9.20;;;9.40;99.90;;;;;;4982634;28;20038;-80
2023/05/12 00:07:57;;;;;;;9.60;8.67;;;9.40;99.90;;;;;;4982809;28;20027;-81
2023/05/12 00:10:25;;;;;;;10.80;9.53;;;9.40;99.90;;;;;;4984186;28;20027;-80
2023/05/12 00:12:51;;;;;;;10.50;9.07;;;9.40;99.90;;;;;;4981955;28;20038;-81
2023/05/12 00:15:18;;;;;;;10.20;9.20;;;9.40;99.90;;;;;;4982792;28;20022;-80
2023/05/12 00:17:44;;;;;;;10.67;9.53;;;9.40;99.90;;;;;;4982627;28;20034;-81
2023/05/12 00:20:10;;;;;;;10.33;9.23;;;9.40;99.90;;;;;;4982337;28;20190;-81
2023/05/12 00:22:36;;;;;;;10.68;9.20;;;9.40;99.90;;;;;;4982468;28;21370;-81
2023/05/12 00:25:01;;;;;;;11.57;9.57;;;9.40;99.90;;;;;;4985143;28;20117;-81
2023/05/12 00:27:28;;;;;;;10.83;9.67;;;9.40;99.90;;;;;;4985126;28;20026;-81
2023/05/12 00:29:53;;;;;;;12.33;11.13;;;9.40;99.90;;;;;;4985686;28;21468;-80
2023/05/12 00:32:19;;;;;;;12.30;11.10;;;9.40;99.90;;;;;;4984302;28;20031;-79
2023/05/12 00:34:44;;;;;;;12.20;11.00;;;9.40;99.90;;;;;;4984197;28;20030;-80
2023/05/12 00:37:10;;;;;;;12.27;10.77;;;9.40;99.90;;;;;;4985200;28;20372;-80
2023/05/12 00:39:36;;;;;;;12.10;10.90;;;9.40;99.90;;;;;;4985114;28;20039;-80
2023/05/12 00:42:04;;;;;;;11.43;10.33;;;9.40;99.90;;;;;;4984258;28;20061;-80
2023/05/12 00:44:30;;;;;;;12.40;11.10;;;9.40;99.90;;;;;;4984101;28;20041;-80
2023/05/12 00:46:55;;;;;;;11.47;10.27;;;9.40;99.90;;;;;;4984967;28;20483;-80
2023/05/12 00:49:21;;;;;;;11.63;10.53;;;9.40;99.90;;;;;;4984080;28;20131;-80
2023/05/12 00:51:47;;;;;;;11.63;10.43;;;9.30;99.90;;;;;;4984085;28;20026;-80
2023/05/12 00:54:13;;;;;;;9.63;8.13;;;9.30;99.90;;;;;;4984746;28;20058;-80
2023/05/12 00:56:38;;;;;;;8.70;7.80;;;9.40;99.90;;;;;;4984606;28;20037;-80
2023/05/12 00:59:05;;;;;;;7.33;6.63;;;9.30;99.90;;;;;;4984822;28;20023;-81
2023/05/12 01:01:32;;;;;;;10.37;7.70;;;9.30;99.90;;;;;;4983628;28;20053;-80
2023/05/12 01:03:59;;;;;;;9.20;7.17;;;9.30;99.90;;;;;;4984559;28;20066;-80
2023/05/12 01:06:32;;;;;;;6.40;5.73;;;9.40;99.90;;;;;;4984503;28;20061;-80
2023/05/12 01:08:59;;;;;;;6.77;6.00;;;9.30;99.90;;;;;;4984867;28;20534;-81
2023/05/12 01:11:24;;;;;;;6.70;5.10;;;9.30;99.90;;;;;;4983522;28;20045;-80
2023/05/12 01:13:50;;;;;;;6.63;5.50;;;9.30;99.90;;;;;;4985228;28;20026;-80
2023/05/12 01:16:21;;;;;;;6.27;5.23;;;9.20;99.90;;;;;;4984570;28;20178;-80
2023/05/12 01:18:52;;;;;;;6.23;5.63;;;9.30;99.90;;;;;;4983888;28;20094;-80
2023/05/12 01:21:18;;;;;;;6.00;5.33;;;9.30;99.90;;;;;;4982654;28;20037;-81
2023/05/12 01:23:50;;;;;;;5.93;5.33;;;9.30;99.90;;;;;;4984127;28;20043;-80
2023/05/12 01:26:15;;;;;;;7.43;5.67;;;9.30;99.90;;;;;;4983643;28;20032;-81
2023/05/12 01:28:41;;;;;;;6.00;5.40;;;9.30;99.90;;;;;;4983393;28;20042;-80
2023/05/12 01:31:08;;;;;;;6.27;5.40;;;9.20;99.90;;;;;;4982743;28;20027;-80
2023/05/12 01:33:34;;;;;;;6.93;5.53;;;9.20;99.90;;;;;;4982551;28;20040;-80
2023/05/12 01:36:00;;;;;;;7.27;5.60;;;9.20;99.90;;;;;;4982001;28;20036;-80
2023/05/12 01:38:26;;;;;;;6.93;6.20;;;9.20;99.90;;;;;;5064271;22;20045;-77
2023/05/12 01:40:51;;;;;;;6.60;5.90;;;9.20;99.90;;;;;;5025051;28;20041;-77
2023/05/12 01:43:17;;;;;;;7.50;6.50;;;9.30;99.90;;;;;;5008456;28;20115;-77
2023/05/12 01:45:42;;;;;;;7.63;6.47;;;9.30;99.90;;;;;;5005855;28;20040;-77
2023/05/12 01:48:08;;;;;;;8.17;6.87;;;9.20;99.90;;;;;;5006604;28;20026;-76
2023/05/12 01:50:33;;;;;;;8.27;7.20;;;9.20;99.90;;;;;;5006393;28;20148;-78
2023/05/12 01:52:59;;;;;;;7.63;6.73;;;9.30;99.90;;;;;;5004864;28;20029;-75
2023/05/12 01:55:24;;;;;;;9.70;7.43;;;9.20;99.90;;;;;;5006114;28;20018;-75
2023/05/12 01:57:50;;;;;;;9.00;7.47;;;9.20;99.90;;;;;;5006360;28;20049;-75
2023/05/12 02:00:15;;;;;;;8.77;7.87;;;9.20;99.90;;;;;;5005993;28;20033;-75
2023/05/12 02:02:41;;;;;;;9.07;7.80;;;9.30;99.90;;;;;;5006147;28;20030;-75
2023/05/12 02:05:08;;;;;;;9.53;8.53;;;9.30;99.90;;;;;;5007295;28;20030;-75
2023/05/12 02:07:33;;;;;;;9.53;8.50;;;9.30;99.90;;;;;;5006935;28;20697;-75
2023/05/12 02:09:59;;;;;;;10.73;8.87;;;9.30;99.90;;;;;;5006384;28;20030;-75
2023/05/12 02:12:24;;;;;;;11.37;9.30;;;9.30;99.90;;;;;;4986930;28;20042;-75
2023/05/12 02:14:50;;;;;;;12.60;9.60;;;9.30;99.90;;;;;;5005148;28;20037;-76
2023/05/12 02:17:16;;;;;;;10.60;9.30;;;9.30;99.90;;;;;;5005301;28;20033;-76
2023/05/12 02:19:41;;;;;;;9.67;8.23;;;9.30;99.90;;;;;;5005409;28;20037;-75
2023/05/12 02:22:07;;;;;;;9.80;7.83;;;9.30;99.90;;;;;;5004476;28;20033;-75
2023/05/12 02:24:32;;;;;;;9.03;7.90;;;9.30;99.90;;;;;;5004976;28;20073;-76
2023/05/12 02:26:58;;;;;;;11.17;8.57;;;9.30;99.90;;;;;;5005566;28;20097;-76
2023/05/12 02:29:23;;;;;;;8.63;7.60;;;9.30;99.90;;;;;;5005129;28;20470;-75
2023/05/12 02:31:49;;;;;;;9.03;8.00;;;9.30;99.90;;;;;;5003994;28;20029;-76
2023/05/12 02:34:14;;;;;;;9.07;8.07;;;9.30;99.90;;;;;;5005484;28;20109;-76
2023/05/12 02:36:40;;;;;;;10.13;8.63;;;9.30;99.90;;;;;;5005013;28;20112;-76
2023/05/12 02:39:06;;;;;;;11.53;8.30;;;9.30;99.90;;;;;;5005675;28;20164;-76
2023/05/12 02:41:32;;;;;;;10.20;9.10;;;9.30;99.90;;;;;;5004959;28;20041;-76
2023/05/12 02:43:57;;;;;;;10.33;9.03;;;9.30;99.90;;;;;;5004300;28;20038;-76
2023/05/12 02:46:23;;;;;;;12.20;9.60;;;9.30;99.90;;;;;;5004518;28;20030;-76
2023/05/12 02:48:48;;;;;;;10.90;9.53;;;9.30;99.90;;;;;;5004814;28;20029;-76
2023/05/12 02:51:14;;;;;;;12.60;9.47;;;9.30;99.90;;;;;;5003722;28;20056;-75
2023/05/12 02:53:40;;;;;;;10.87;9.13;;;9.30;99.90;;;;;;5004948;28;20033;-76
2023/05/12 02:56:06;;;;;;;11.53;9.93;;;9.30;99.90;;;;;;5004228;28;20030;-76
2023/05/12 02:58:32;;;;;;;10.50;9.40;;;9.30;99.90;;;;;;5004284;28;21257;-76
2023/05/12 03:00:57;;;;;;;12.27;9.70;;;9.30;99.90;;;;;;5004763;28;20034;-76
2023/05/12 03:03:23;;;;;;;10.80;9.10;;;9.30;99.90;;;;;;5004273;28;20033;-76
2023/05/12 03:05:50;;;;;;;9.97;8.30;;;9.30;99.90;;;;;;5004582;28;20055;-75
2023/05/12 03:08:15;;;;;;;12.70;9.53;;;9.30;99.90;;;;;;5003307;28;20489;-76
2023/05/12 03:10:42;;;;;;;11.27;9.43;;;9.30;99.90;;;;;;5004758;28;20033;-76
2023/05/12 03:13:08;;;;;;;12.53;9.80;;;9.30;99.90;;;;;;5004027;28;20032;-76
2023/05/12 03:15:35;;;;;;;10.90;9.00;;;9.30;99.90;;;;;;5004701;28;20053;-76
2023/05/12 03:18:01;;;;;;;10.80;9.70;;;9.30;99.90;;;;;;5004283;28;20133;-76
2023/05/12 03:20:26;;;;;;;11.13;9.90;;;9.30;99.90;;;;;;5004960;28;20026;-76
2023/05/12 03:22:52;;;;;;;10.20;9.07;;;9.30;99.90;;;;;;4999680;28;20034;-76
2023/05/12 03:25:17;;;;;;;11.47;9.27;;;9.30;99.90;;;;;;5001779;28;20042;-76
2023/05/12 03:27:43;;;;;;;11.73;10.10;;;9.30;99.90;;;;;;5004609;28;20037;-75
2023/05/12 03:30:09;;;;;;;11.47;9.63;;;9.30;99.90;;;;;;5004583;28;20026;-76
2023/05/12 03:32:34;;;;;;;11.00;9.70;;;9.30;99.90;;;;;;5003856;28;20027;-75
2023/05/12 03:35:00;;;;;;;10.80;9.67;;;9.30;99.90;;;;;;5004772;28;20032;-75
2023/05/12 03:37:25;;;;;;;12.77;10.40;;;9.30;99.90;;;;;;5004808;28;20076;-76
2023/05/12 03:39:54;;;;;;;11.67;9.87;;;9.30;99.90;;;;;;5005359;28;20044;-75
2023/05/12 03:42:20;;;;;;;11.13;9.70;;;9.20;99.90;;;;;;5001638;28;20042;-76
2023/05/12 03:44:46;;;;;;;12.80;10.93;;;9.30;99.90;;;;;;5003420;28;20099;-76
2023/05/12 03:47:12;;;;;;;13.10;11.37;;;9.30;99.90;;;;;;5002938;28;20037;-76
2023/05/12 03:49:38;;;;;;;13.13;11.73;;;9.30;99.90;;;;;;5004647;28;20034;-76
2023/05/12 03:52:03;;;;;;;11.97;10.70;;;9.30;99.90;;;;;;5003176;28;20034;-76
2023/05/12 03:54:29;;;;;;;13.03;11.30;;;9.30;99.90;;;;;;5003639;28;20076;-76
2023/05/12 03:56:55;;;;;;;13.50;10.80;;;9.30;99.90;;;;;;5003011;28;20034;-76
2023/05/12 03:59:20;;;;;;;12.60;11.10;;;9.30;99.90;;;;;;5006341;28;20896;-76
2023/05/12 04:01:46;;;;;;;13.10;11.13;;;9.30;99.90;;;;;;5007293;28;20029;-76
2023/05/12 04:04:11;;;;;;;13.53;11.30;;;9.30;99.90;;;;;;5008250;28;20432;-76
2023/05/12 04:06:37;;;;;;;13.83;10.97;;;9.30;99.90;;;;;;5007629;28;20041;-76
2023/05/12 04:09:03;;;;;;;15.07;12.10;;;9.30;99.90;;;;;;5007915;28;20044;-76
2023/05/12 04:11:28;;;;;;;13.40;11.20;;;9.30;99.90;;;;;;5007380;28;20083;-76
2023/05/12 04:13:54;;;;;;;14.00;11.87;;;9.30;99.90;;;;;;5007766;28;20367;-74
2023/05/12 04:16:20;;;;;;;13.83;11.63;;;9.30;99.90;;;;;;5007362;28;20417;-74
2023/05/12 04:18:45;;;;;;;14.50;11.40;;;9.30;99.90;;;;;;5007792;28;21395;-74
2023/05/12 04:21:11;;;;;;;17.63;12.83;;;9.30;99.90;;;;;;5006856;28;20052;-74
2023/05/12 04:23:36;;;;;;;15.10;12.20;;;9.30;99.90;;;;;;5006823;28;20086;-74
2023/05/12 04:26:04;;;;;;;15.03;11.70;;;9.30;99.90;;;;;;5007365;28;20033;-74
2023/05/12 04:28:29;;;;;;;15.03;12.30;;;9.30;99.90;;;;;;5007033;28;20030;-74
2023/05/12 04:30:55;;;;;;;13.23;11.30;;;9.40;99.90;;;;;;5006684;28;20049;-73
2023/05/12 04:33:20;;;;;;;14.18;11.80;;;9.40;99.90;;;;;;5006914;28;20025;-74
2023/05/12 04:35:46;;;;;;;13.47;10.87;;;9.40;99.90;;;;;;5006900;28;20047;-74
2023/05/12 04:38:12;;;;;;;13.50;11.40;;;9.40;99.90;;;;;;5005968;28;20064;-74
2023/05/12 04:40:37;;;;;;;12.70;10.27;;;9.40;99.90;;;;;;5007007;28;20105;-74
2023/05/12 04:43:03;;;;;;;12.83;10.20;;;9.40;99.90;;;;;;5005972;28;20710;-74
2023/05/12 04:45:29;;;;;;;13.30;10.63;;;9.40;99.90;;;;;;5005890;28;20029;-74
2023/05/12 04:47:55;;;;;;;13.47;11.20;;;9.50;99.90;;;;;;5005976;28;20026;-74
2023/05/12 04:50:20;;;;;;;12.60;11.03;;;9.50;99.90;;;;;;5005340;28;20097;-74
2023/05/12 04:52:46;;;;;;;12.67;10.70;;;9.50;99.90;;;;;;5005665;28;20105;-74
2023/05/12 04:55:11;;;;;;;11.83;10.23;;;9.60;99.90;;;;;;5005672;28;20037;-74
2023/05/12 04:57:39;;;;;;;12.30;9.80;;;9.60;99.90;;;;;;5005063;28;20045;-74
2023/05/12 05:00:06;;;;;;;11.00;9.27;;;9.60;99.90;;;;;;5003745;28;20034;-73
2023/05/12 05:02:32;;;;;;;10.80;8.80;;;9.60;99.90;;;;;;5003329;28;20045;-73
2023/05/12 05:04:57;;;;;;;10.50;8.53;;;9.60;99.90;;;;;;5003136;28;20053;-73
2023/05/12 05:07:23;;;;;;;10.03;8.63;;;9.60;99.90;;;;;;5004958;28;20048;-73
2023/05/12 05:09:49;;;;;;;9.50;8.18;;;9.70;99.90;;;;;;5004945;28;20626;-73
2023/05/12 05:12:14;;;;;;;9.07;8.10;;;9.70;99.90;;;;;;5005164;28;20096;-73
2023/05/12 05:14:40;;;;;;;8.32;7.00;;;9.70;99.90;;;;;;5003019;28;20125;-76
2023/05/12 05:17:10;;;;;;;7.90;7.10;;;9.80;99.90;;;;;;5002843;28;20125;-73
2023/05/12 05:19:35;;;;;;;6.37;5.53;;;9.80;99.90;;;;;;4995382;28;20057;-74
2023/05/12 05:22:01;;;;;;;7.15;6.20;;;9.90;99.90;;;;;;4992112;28;20144;-74
2023/05/12 05:24:26;;;;;;;9.00;6.80;;;9.90;99.90;;;;;;4995169;28;20551;-73
2023/05/12 05:26:52;;;;;;;8.93;7.55;;;9.90;99.90;;;;;;4993661;28;20486;-74
2023/05/12 05:29:17;;;;;;;8.53;7.50;;;9.90;99.90;;;;;;4993660;28;20033;-74
2023/05/12 05:31:43;;;;;;;7.97;7.00;;;9.90;99.90;;;;;;4993043;28;20027;-74
2023/05/12 05:34:08;;;;;;;9.27;7.40;;;9.90;99.90;;;;;;5003238;28;20026;-74
2023/05/12 05:36:34;;;;;;;8.53;7.60;;;10.00;99.90;;;;;;5003802;28;20699;-73
2023/05/12 05:38:59;;;;;;;11.50;8.60;;;10.00;99.90;;;;;;5004806;28;21372;-74
2023/05/12 05:41:25;;;;;;;11.10;7.83;;;10.10;99.90;;;;;;5003241;28;20033;-74
2023/05/12 05:43:51;;;;;;;9.50;8.10;;;10.10;99.90;;;;;;5003426;28;20220;-75
2023/05/12 05:46:16;;;;;;;9.05;7.10;;;10.20;99.90;;;;;;5004480;28;20464;-75
2023/05/12 05:48:42;;;;;;;8.88;7.22;;;10.30;99.90;;;;;;5004401;28;20038;-75
2023/05/12 05:51:10;;;;;;;6.55;5.15;;;10.40;99.90;;;;;;5004641;28;20056;-75
2023/05/12 05:53:35;;;;;;;5.68;4.80;;;10.40;99.90;;;;;;5004459;28;20030;-75
2023/05/12 05:56:01;;;;;;;7.30;5.23;;;10.50;99.90;;;;;;5005213;28;20487;-75
2023/05/12 05:58:26;;;;;;;7.57;6.20;;;10.60;99.90;;;;;;5004588;28;20026;-76
2023/05/12 06:00:52;;;;;;;10.07;6.03;;;10.60;99.90;;;;;;5005613;28;21203;-76
2023/05/12 06:03:18;;;;;;;8.43;6.25;;;10.60;99.90;;;;;;5004377;28;20092;-76
2023/05/12 06:05:44;;;;;;;7.40;6.05;;;10.70;99.90;;;;;;5003561;28;20533;-75
2023/05/12 06:08:12;;;;;;;7.95;6.15;;;10.70;99.90;;;;;;5003484;28;20040;-76
2023/05/12 06:10:38;;;;;;;7.93;6.75;;;10.70;99.90;;;;;;5002375;28;20026;-76
2023/05/12 06:13:03;;;;;;;9.27;7.10;;;10.80;99.90;;;;;;5003199;28;20026;-76
2023/05/12 06:15:29;;;;;;;9.77;7.22;;;10.90;99.90;;;;;;5005118;28;20034;-76
2023/05/12 06:17:55;;;;;;;9.32;7.80;;;10.90;99.90;;;;;;5003846;28;20052;-76
2023/05/12 06:20:22;;;;;;;8.43;6.85;;;11.00;99.90;;;;;;5003882;28;20034;-75
2023/05/12 06:22:48;;;;;;;10.82;7.53;;;11.10;99.90;;;;;;5000079;28;20777;-76
2023/05/12 06:25:13;;;;;;;10.40;8.18;;;11.10;99.90;;;;;;5002320;28;20034;-76
2023/05/12 06:27:39;;;;;;;8.88;7.47;;;11.20;99.90;;;;;;5000543;28;20710;-76
2023/05/12 06:30:05;;;;;;;9.02;7.65;;;11.20;99.90;;;;;;5003481;28;20080;-76
2023/05/12 06:32:31;;;;;;;8.68;7.32;;;11.20;99.90;;;;;;5003878;28;21387;-76
2023/05/12 06:34:57;;;;;;;9.23;7.43;;;11.30;99.90;;;;;;5003277;28;20038;-76
2023/05/12 06:37:23;;;;;;;7.80;6.90;;;11.40;99.90;;;;;;5003313;28;20033;-76
2023/05/12 06:39:49;;;;;;;10.98;7.43;;;11.40;99.90;;;;;;5002419;28;20087;-77
2023/05/12 06:42:14;;;;;;;8.32;7.35;;;11.40;99.90;;;;;;5002116;28;20026;-77
2023/05/12 06:44:40;;;;;;;8.75;7.82;;;11.50;99.90;;;;;;5003020;28;20042;-76
2023/05/12 06:47:06;;;;;;;12.90;8.63;;;11.50;99.90;;;;;;5003279;28;20044;-76
2023/05/12 06:49:34;;;;;;;12.57;8.27;;;11.60;99.90;;;;;;5004179;28;20051;-76
2023/05/12 06:52:00;;;;;;;11.70;8.27;;;11.60;99.90;;;;;;5003173;28;20510;-77
2023/05/12 06:54:25;;;;;;;10.20;8.57;;;11.60;99.90;;;;;;5003877;28;20133;-76
2023/05/12 06:56:51;;;;;;;11.80;9.52;;;11.50;99.90;;;;;;5003532;28;20040;-76
2023/05/12 06:59:17;;;;;;;10.52;9.20;;;11.50;99.90;;;;;;5003825;28;20785;-76
2023/05/12 07:01:42;;;;;;;11.23;9.38;;;11.50;99.90;;;;;;5001648;28;20029;-76
2023/05/12 07:04:08;;;;;;;10.70;9.13;;;11.50;99.90;;;;;;5002391;28;20112;-76
2023/05/12 07:06:33;;;;;;;10.93;9.13;;;11.50;99.90;;;;;;5003464;28;20040;-76
2023/05/12 07:08:59;;;;;;;11.95;9.70;;;11.50;99.90;;;;;;5001452;28;20099;-77
2023/05/12 07:11:25;;;;;;;12.82;9.27;;;11.50;99.90;;;;;;5001938;28;20022;-76
2023/05/12 07:13:51;;;;;;;11.18;8.88;;;11.50;99.90;;;;;;5003065;28;20584;-76
2023/05/12 07:16:18;;;;;;;10.38;9.27;;;11.50;99.90;;;;;;5000850;28;20025;-76
2023/05/12 07:18:44;;;;;;;11.02;9.73;;;11.50;99.90;;;;;;4999631;28;20132;-76
2023/05/12 07:21:10;;;;;;;11.45;9.55;;;11.50;99.90;;;;;;5002251;28;20034;-76
2023/05/12 07:23:36;;;;;;;10.48;9.30;;;11.60;99.90;;;;;;5001279;28;20048;-76
2023/05/12 07:26:03;;;;;;;10.88;9.38;;;11.60;99.90;;;;;;5001545;28;20022;-76
2023/05/12 07:28:31;;;;;;;9.55;8.38;;;11.70;99.90;;;;;;5001689;28;20046;-76
2023/05/12 07:30:58;;;;;;;9.07;8.02;;;11.80;99.90;;;;;;5001702;28;20076;-76
2023/05/12 07:33:23;;;;;;;10.18;9.07;;;11.80;99.90;;;;;;5003105;28;20046;-76
2023/05/12 07:35:49;;;;;;;12.15;8.77;;;11.90;99.90;;;;;;5007195;28;21338;-76
2023/05/12 07:38:15;;;;;;;10.63;9.02;;;11.90;99.90;;;;;;5004740;28;20045;-76
2023/05/12 07:40:40;;;;;;;9.40;7.40;;;11.90;99.90;;;;;;5004855;28;20541;-77
2023/05/12 07:43:06;;;;;;;7.40;6.25;;;11.90;99.90;;;;;;5103589;22;20088;-89
2023/05/12 07:45:32;;;;;;;7.55;6.18;;;12.00;99.90;;;;;;5002935;28;20035;-88
2023/05/12 07:47:57;;;;;;;6.65;6.00;;;12.00;99.90;;;;;;5002920;28;20019;-89
2023/05/12 07:50:23;;;;;;;5.10;4.43;;;12.00;99.90;;;;;;5002675;28;20762;-89
2023/05/12 07:52:50;;;;;;;5.47;4.38;;;12.10;99.90;;;;;;5001620;28;20517;-89
2023/05/12 07:55:16;;;;;;;5.60;4.95;;;12.20;99.90;;;;;;5003299;28;20381;-89
2023/05/12 07:57:42;;;;;;;6.95;6.05;;;12.20;99.90;;;;;;5002669;28;20482;-88
2023/05/12 08:00:09;;;;;;;7.28;5.65;;;12.40;99.90;;;;;;5000738;28;20120;-87
2023/05/12 08:02:36;;;;;;;6.43;5.65;;;12.40;99.90;;;;;;5002283;28;20650;-86
2023/05/12 08:05:02;;;;;;;7.40;5.53;;;12.50;99.90;;;;;;5002598;28;20026;-87
2023/05/12 08:07:27;;;;;;;6.75;6.05;;;12.50;99.90;;;;;;5003430;28;20028;-90
2023/05/12 08:09:54;;;;;;;7.75;6.10;;;12.50;99.90;;;;;;5002719;28;20027;-87
2023/05/12 08:12:19;;;;;;;7.28;5.88;;;12.60;99.90;;;;;;5003889;28;20382;-87
2023/05/12 08:14:45;;;;;;;6.82;5.78;;;12.60;99.90;;;;;;5002338;28;20028;-88
2023/05/12 08:17:11;;;;;;;6.85;6.10;;;12.60;99.90;;;;;;5002037;28;20159;-88
2023/05/12 08:19:37;;;;;;;8.15;5.78;;;12.50;99.90;;;;;;5004160;28;20059;-88
2023/05/12 08:22:02;;;;;;;7.40;5.53;;;12.50;99.90;;;;;;5004748;28;20036;-87
2023/05/12 08:24:28;;;;;;;10.40;6.35;;;12.50;99.90;;;;;;5003201;28;20374;-87
2023/05/12 08:26:53;;;;;;;7.40;5.80;;;12.50;99.90;;;;;;5003607;28;20022;-88
2023/05/12 08:29:19;;;;;;;9.27;6.38;;;12.40;99.90;;;;;;5002636;28;20402;-87
2023/05/12 08:31:45;;;;;;;11.30;6.78;;;12.40;99.90;;;;;;5003282;28;20029;-88
2023/05/12 08:34:10;;;;;;;8.68;7.22;;;12.30;99.90;;;;;;5004330;28;20029;-87
2023/05/12 08:36:37;;;;;;;8.18;7.07;;;12.30;99.90;;;;;;5003433;28;20118;-88
2023/05/12 08:39:03;;;;;;;10.50;7.63;;;12.30;99.90;;;;;;5002740;28;20018;-87
2023/05/12 08:41:42;;;;;;;8.20;6.88;;;12.30;99.90;;;;;;5002298;28;20025;-88
2023/05/12 08:44:10;;;;;;;6.50;5.80;;;12.20;99.90;;;;;;5005025;28;20483;-87
2023/05/12 08:46:35;;;;;;;8.15;7.13;;;12.20;99.90;;;;;;5007204;28;20026;-89
2023/05/12 08:49:03;;;;;;;8.32;5.50;;;12.20;99.90;;;;;;5006517;28;20022;-91
2023/05/12 08:51:31;;;;;;;6.57;4.82;;;12.20;99.90;;;;;;5009456;28;20046;-87
2023/05/12 08:53:57;;;;;;;5.38;4.63;;;12.10;99.90;;;;;;5005157;28;20057;-87
2023/05/12 08:56:23;;;;;;;6.05;5.32;;;12.10;99.90;;;;;;5001609;28;20978;-87
2023/05/12 08:58:50;;;;;;;6.53;5.82;;;12.00;99.90;;;;;;5004141;28;20053;-89
2023/05/12 09:01:16;;;;;;;7.45;6.53;;;12.00;99.90;;;;;;5002561;28;20069;-88
2023/05/12 09:03:42;;;;;;;7.95;6.00;;;11.90;99.90;;;;;;5002685;28;20034;-85
2023/05/12 09:06:10;;;;;;;7.30;6.13;;;11.90;99.90;;;;;;5003671;28;20100;-87
2023/05/12 09:08:36;;;;;;;6.15;5.22;;;11.90;99.90;;;;;;5002887;28;20537;-89
2023/05/12 09:11:02;;;;;;;6.28;5.25;;;11.90;99.90;;;;;;5003776;28;20485;-88
2023/05/12 09:13:45;;;;;;;7.72;5.70;;;11.80;99.90;;;;;;5005191;28;20061;-87
2023/05/12 09:16:12;;;;;;;6.32;4.80;;;11.80;99.90;;;;;;5002166;28;20447;-88
2023/05/12 09:18:51;;;;;;;6.55;5.35;;;11.70;99.90;;;;;;5003618;28;20085;-88
2023/05/12 09:21:17;;;;;;;6.68;6.00;;;11.70;99.90;;;;;;5002632;28;20038;-88
2023/05/12 09:24:06;;;;;;;6.40;5.75;;;11.70;99.90;;;;;;4997283;28;20543;-88
2023/05/12 09:26:43;;;;;;;6.30;5.47;;;11.70;99.90;;;;;;4997112;28;20056;-87
2023/05/12 09:29:10;;;;;;;6.93;6.22;;;11.70;99.90;;;;;;4997837;28;20153;-87
2023/05/12 09:31:36;;;;;;;7.88;6.68;;;11.70;99.90;;;;;;4996698;28;20078;-87
2023/05/12 09:34:09;;;;;;;7.32;5.70;;;11.70;99.90;;;;;;4997988;28;20713;-88
2023/05/12 09:36:35;;;;;;;6.18;5.05;;;11.80;99.90;;;;;;4998762;28;20030;-88
2023/05/12 09:39:06;;;;;;;6.05;4.57;;;11.80;99.90;;;;;;4997999;28;20600;-88
2023/05/12 09:41:42;;;;;;;4.72;3.90;;;11.70;99.90;;;;;;4996845;28;20038;-87
2023/05/12 09:44:09;;;;;;;4.00;3.60;;;11.70;99.90;;;;;;4996640;28;20038;-75
2023/05/12 09:46:37;;;;;;;10.57;4.85;;;11.70;99.90;;;;;;5001097;28;20543;-83
2023/05/12 09:49:02;;;;;;;5.93;4.50;;;11.70;99.90;;;;;;5003827;28;20046;-82
2023/05/12 09:51:29;;;;;;;4.90;4.40;;;11.70;99.90;;;;;;5002534;28;20072;-83
2023/05/12 09:53:56;;;;;;;5.40;4.75;;;11.70;99.90;;;;;;5003176;28;20040;-82
2023/05/12 09:56:23;;;;;;;5.90;4.90;;;11.80;99.90;;;;;;5003129;28;20021;-82
2023/05/12 09:58:49;;;;;;;5.93;4.57;;;11.90;99.90;;;;;;4985026;28;20107;-83
2023/05/12 10:01:18;;;;;;;5.15;4.20;;;11.90;99.90;;;;;;5006315;28;20050;-82
2023/05/12 10:03:46;;;;;;;4.95;4.13;;;12.00;99.90;;;;;;5003020;28;20049;-83
2023/05/12 10:06:14;;;;;;;5.03;4.07;;;12.00;99.90;;;;;;5001786;28;20065;-82
2023/05/12 10:08:47;;;;;;;6.10;4.30;;;12.10;99.90;;;;;;5000925;28;20029;-83
2023/05/12 10:11:14;;;;;;;6.45;4.78;;;12.20;99.90;;;;;;5001740;28;20076;-87
2023/05/12 10:13:39;;;;;;;5.50;3.55;;;12.30;99.90;;;;;;5000172;28;20475;-83
2023/05/12 10:16:06;;;;;;;5.55;4.07;;;12.50;99.90;;;;;;5000333;28;20049;-83
2023/05/12 10:18:33;;;;;;;5.07;4.15;;;12.70;99.90;;;;;;5002180;28;20115;-82
2023/05/12 10:21:00;;;;;;;5.55;4.07;;;12.90;99.90;;;;;;5001355;28;20033;-83
2023/05/12 10:23:26;;;;;;;5.38;4.10;;;13.10;99.90;;;;;;5001788;28;20038;-83
2023/05/12 10:25:57;;;;;;;4.50;3.65;;;13.20;99.90;;;;;;5000512;28;20049;-82
2023/05/12 10:28:23;;;;;;;5.35;3.88;;;13.50;99.90;;;;;;4999641;28;20026;-83
2023/05/12 10:30:49;;;;;;;6.28;4.20;;;13.70;99.90;;;;;;5001384;28;20030;-83
2023/05/12 10:33:15;;;;;;;5.22;4.30;;;13.80;99.90;;;;;;5001434;28;20064;-82
2023/05/12 10:35:42;;;;;;;4.40;3.35;;;14.00;99.90;;;;;;5001224;28;20026;-83
2023/05/12 10:38:10;;;;;;;5.13;4.15;;;14.10;99.90;;;;;;5002394;28;20038;-83
2023/05/12 10:40:48;;;;;;;4.10;3.70;;;14.20;99.90;;;;;;5001134;28;20034;-84
2023/05/12 10:43:27;;;;;;;5.30;3.72;;;14.20;99.90;;;;;;4998426;28;20133;-82
2023/05/12 10:46:11;;;;;;;4.53;3.60;;;14.20;99.90;;;;;;4999507;28;20030;-83
2023/05/12 10:48:50;;;;;;;4.55;3.75;;;14.10;99.90;;;;;;5000771;28;20108;-82
2023/05/12 10:51:21;;;;;;;4.72;3.95;;;13.90;99.90;;;;;;4996393;28;20026;-84
2023/05/12 10:53:51;;;;;;;4.40;3.70;;;13.80;99.90;;;;;;4999621;28;20029;-85
2023/05/12 10:56:39;;;;;;;5.38;3.95;;;13.70;99.90;;;;;;4997911;28;20045;-82
2023/05/12 10:59:22;;;;;;;4.93;3.50;;;13.50;99.90;;;;;;4998163;28;20038;-83
2023/05/12 11:02:17;;;;;;;7.18;4.30;;;13.40;99.90;;;;;;5000027;28;20041;-83
2023/05/12 11:04:45;;;;;;;5.57;3.67;;;13.30;99.90;;;;;;4999677;28;20870;-82
2023/05/12 11:07:12;;;;;;;4.30;3.55;;;13.20;99.90;;;;;;4999818;28;20034;-83
2023/05/12 11:09:42;;;;;;;5.75;4.07;;;13.10;99.90;;;;;;5000225;28;20034;-84
2023/05/12 11:12:09;;;;;;;4.80;3.85;;;13.00;99.90;;;;;;4998072;28;20608;-83
2023/05/12 11:14:37;;;;;;;7.50;4.40;;;12.90;99.90;;;;;;4999160;28;20025;-83
2023/05/12 11:17:03;;;;;;;5.32;4.38;;;12.80;99.90;;;;;;4999136;28;20071;-84
2023/05/12 11:19:29;;;;;;;5.20;4.03;;;12.70;99.90;;;;;;4997601;28;20092;-86
2023/05/12 11:21:54;;;;;;;4.78;4.20;;;12.60;99.90;;;;;;4979599;28;20022;-84
2023/05/12 11:24:20;;;;;;;6.70;4.07;;;12.50;99.90;;;;;;4999692;28;20041;-83
2023/05/12 11:26:50;;;;;;;4.65;4.07;;;12.50;99.90;;;;;;4997698;28;20113;-83
2023/05/12 11:29:19;;;;;;;4.90;3.88;;;12.40;99.90;;;;;;4998420;28;20056;-84
2023/05/12 11:31:52;;;;;;;4.82;3.90;;;12.30;99.90;;;;;;4998147;28;20767;-85
2023/05/12 11:34:25;;;;;;;5.22;4.13;;;12.20;99.90;;;;;;4997188;28;20030;-83
2023/05/12 11:36:54;;;;;;;6.88;4.65;;;12.20;99.90;;;;;;4997940;28;20450;-83
2023/05/12 11:39:21;;;;;;;6.05;4.47;;;12.10;99.90;;;;;;4996682;28;20038;-83
2023/05/12 11:41:48;;;;;;;8.52;4.60;;;12.10;99.90;;;;;;4996619;28;20026;-83
2023/05/12 11:44:19;;;;;;;4.78;3.97;;;12.10;99.90;;;;;;4998687;28;20310;-83
2023/05/12 11:47:12;;;;;;;7.43;3.75;;;12.10;99.90;;;;;;4999325;28;20026;-83
2023/05/12 11:49:46;;;;;;;5.95;3.53;;;12.00;99.90;;;;;;4997295;28;20049;-84
2023/05/12 11:52:13;;;;;;;4.53;3.75;;;12.00;99.90;;;;;;4995867;28;20500;-83
2023/05/12 11:54:46;;;;;;;4.90;3.65;;;12.00;99.90;;;;;;4998760;28;20315;-84
2023/05/12 11:57:11;;;;;;;6.90;3.38;;;12.00;99.90;;;;;;4998001;28;20171;-84
2023/05/12 11:59:37;;;;;;;4.45;3.70;;;12.10;99.90;;;;;;5000834;28;20120;-85
2023/05/12 12:02:03;;;;;;;4.90;3.20;;;12.20;99.90;;;;;;4997197;28;20037;-84
2023/05/12 12:04:37;;;;;;;4.43;2.60;;;12.30;99.90;;;;;;4977348;28;20058;-86
2023/05/12 12:07:04;;;;;;;4.40;2.78;;;12.30;99.90;;;;;;4997764;28;20096;-84
2023/05/12 12:09:41;;;;;;;3.42;2.50;;;12.40;99.90;;;;;;4998811;28;20169;-85
2023/05/12 12:12:08;;;;;;;4.10;2.60;;;12.50;99.90;;;;;;4997528;28;20030;-86
2023/05/12 12:14:36;;;;;;;4.80;2.90;;;12.60;99.90;;;;;;4999497;28;20029;-86
2023/05/12 12:17:03;;;;;;;4.45;2.60;;;12.70;99.90;;;;;;4994285;28;21638;-85
2023/05/12 12:19:28;;;;;;;3.67;2.65;;;12.80;99.90;;;;;;4998722;28;20042;-86
2023/05/12 12:21:55;;;;;;;5.13;2.90;;;12.90;99.90;;;;;;5001749;28;20030;-84
2023/05/12 12:24:21;;;;;;;3.55;2.70;;;13.00;99.90;;;;;;4999673;28;20125;-85
2023/05/12 12:26:46;;;;;;;3.85;3.22;;;13.10;99.90;;;;;;5001202;28;20126;-83
2023/05/12 12:29:12;;;;;;;4.22;3.08;;;13.20;99.90;;;;;;5000311;28;20031;-85
2023/05/12 12:31:37;;;;;;;4.80;3.28;;;13.30;99.90;;;;;;4998351;28;20042;-83
2023/05/12 12:34:03;;;;;;;4.32;3.40;;;13.30;99.90;;;;;;4999550;28;20026;-83
2023/05/12 12:36:29;;;;;;;6.03;3.45;;;13.30;99.90;;;;;;4999112;28;20113;-83
2023/05/12 12:38:55;;;;;;;5.97;3.55;;;13.40;99.90;;;;;;4999380;28;21107;-84
2023/05/12 12:41:21;;;;;;;5.63;3.65;;;13.50;99.90;;;;;;4999395;28;20026;-86
2023/05/12 12:43:47;;;;;;;4.63;3.47;;;13.50;99.90;;;;;;4999566;28;20463;-84